sensor_id;sensor_type;location;lat;lon;timestamp;temperature;humidity
14735;DHT22;7458;49.002;8.472;2023-10-13T00:01:55;19.60;99.90
14735;DHT22;7458;49.002;8.472;2023-10-13T00:04:25;20.10;99.90
14735;DHT22;7458;49.002;8.472;2023-10-13T00:06:55;20.00;99.90
14735;DHT22;7458;49.002;8.472;2023-10-13T00:09:25;20.00;99.90
14735;DHT22;7458;49.002;8.472;2023-10-13T00:11:58;20.00;99.90
14735;DHT22;7458;49.002;8.472;2023-10-13T00:14:27;19.60;99.90
14735;DHT22;7458;49.002;8.472;2023-10-13T00:17:03;19.90;99.90
14735;DHT22;7458;49.002;8.472;2023-10-13T00:19:34;19.80;99.90
14735;DHT22;7458;49.002;8.472;2023-10-13T00:22:10;19.80;99.90
14735;DHT22;7458;49.002;8.472;2023-10-13T00:24:38;19.80;99.90
14735;DHT22;7458;49.002;8.472;2023-10-13T00:27:18;19.80;99.90
14735;DHT22;7458;49.002;8.472;2023-10-13T00:30:04;19.80;99.90
14735;DHT22;7458;49.002;8.472;2023-10-13T00:32:59;19.80;99.90
14735;DHT22;7458;49.002;8.472;2023-10-13T00:35:26;19.80;99.90
14735;DHT22;7458;49.002;8.472;2023-10-13T00:38:05;19.80;99.90
14735;DHT22;7458;49.002;8.472;2023-10-13T00:40:43;19.80;99.90
14735;DHT22;7458;49.002;8.472;2023-10-13T00:43:17;19.80;99.90
14735;DHT22;7458;49.002;8.472;2023-10-13T00:45:52;19.90;99.90
14735;DHT22;7458;49.002;8.472;2023-10-13T00:48:23;19.90;99.90
14735;DHT22;7458;49.002;8.472;2023-10-13T00:50:59;19.90;99.90
14735;DHT22;7458;49.002;8.472;2023-10-13T00:53:43;20.10;99.90
14735;DHT22;7458;49.002;8.472;2023-10-13T00:56:12;20.10;99.90
14735;DHT22;7458;49.002;8.472;2023-10-13T00:58:46;20.10;99.90
14735;DHT22;7458;49.002;8.472;2023-10-13T01:01:12;20.10;99.90
14735;DHT22;7458;49.002;8.472;2023-10-13T01:03:52;20.10;99.90
14735;DHT22;7458;49.002;8.472;2023-10-13T01:06:25;20.10;99.90
14735;DHT22;7458;49.002;8.472;2023-10-13T01:11:49;20.10;99.90
14735;DHT22;7458;49.002;8.472;2023-10-13T01:14:19;20.10;99.90
14735;DHT22;7458;49.002;8.472;2023-10-13T01:16:47;20.10;99.90
14735;DHT22;7458;49.002;8.472;2023-10-13T01:19:19;20.10;99.90
14735;DHT22;7458;49.002;8.472;2023-10-13T01:21:50;20.20;99.90
14735;DHT22;7458;49.002;8.472;2023-10-13T01:24:22;20.00;99.90
14735;DHT22;7458;49.002;8.472;2023-10-13T01:26:50;20.10;99.90
14735;DHT22;7458;49.002;8.472;2023-10-13T01:29:18;20.20;99.90
14735;DHT22;7458;49.002;8.472;2023-10-13T01:31:46;20.30;99.90
14735;DHT22;7458;49.002;8.472;2023-10-13T01:34:19;20.20;99.90
14735;DHT22;7458;49.002;8.472;2023-10-13T01:36:52;20.20;99.90
14735;DHT22;7458;49.002;8.472;2023-10-13T01:39:20;20.40;99.90
14735;DHT22;7458;49.002;8.472;2023-10-13T01:41:52;20.30;99.90
14735;DHT22;7458;49.002;8.472;2023-10-13T01:44:25;20.30;99.90
14735;DHT22;7458;49.002;8.472;2023-10-13T01:49:19;20.40;99.90
14735;DHT22;7458;49.002;8.472;2023-10-13T01:51:48;20.40;99.90
14735;DHT22;7458;49.002;8.472;2023-10-13T01:54:14;20.30;99.90
14735;DHT22;7458;49.002;8.472;2023-10-13T01:56:41;20.30;98.50
14735;DHT22;7458;49.002;8.472;2023-10-13T01:59:12;20.30;98.30
14735;DHT22;7458;49.002;8.472;2023-10-13T02:01:39;20.40;98.10
14735;DHT22;7458;49.002;8.472;2023-10-13T02:04:07;20.30;97.90
14735;DHT22;7458;49.002;8.472;2023-10-13T02:06:36;20.30;97.70
14735;DHT22;7458;49.002;8.472;2023-10-13T02:09:07;20.30;97.70
14735;DHT22;7458;49.002;8.472;2023-10-13T02:11:44;20.20;99.90
14735;DHT22;7458;49.002;8.472;2023-10-13T02:14:14;20.20;97.10
14735;DHT22;7458;49.002;8.472;2023-10-13T02:16:43;20.20;97.00
14735;DHT22;7458;49.002;8.472;2023-10-13T02:19:12;19.50;99.90
14735;DHT22;7458;49.002;8.472;2023-10-13T02:21:41;20.10;96.70
14735;DHT22;7458;49.002;8.472;2023-10-13T02:24:10;20.10;96.70
14735;DHT22;7458;49.002;8.472;2023-10-13T02:26:44;20.10;96.90
14735;DHT22;7458;49.002;8.472;2023-10-13T02:29:10;20.00;96.70
14735;DHT22;7458;49.002;8.472;2023-10-13T02:31:40;19.80;99.90
14735;DHT22;7458;49.002;8.472;2023-10-13T02:34:07;19.80;99.90
14735;DHT22;7458;49.002;8.472;2023-10-13T02:36:35;19.90;99.90
14735;DHT22;7458;49.002;8.472;2023-10-13T02:39:05;20.00;96.80
14735;DHT22;7458;49.002;8.472;2023-10-13T02:41:35;19.90;96.80
14735;DHT22;7458;49.002;8.472;2023-10-13T02:44:05;19.90;96.60
14735;DHT22;7458;49.002;8.472;2023-10-13T02:46:32;19.90;96.50
14735;DHT22;7458;49.002;8.472;2023-10-13T02:49:02;19.90;99.90
14735;DHT22;7458;49.002;8.472;2023-10-13T02:51:37;19.70;99.90
14735;DHT22;7458;49.002;8.472;2023-10-13T02:54:04;19.70;99.90
14735;DHT22;7458;49.002;8.472;2023-10-13T02:56:40;19.20;99.90
14735;DHT22;7458;49.002;8.472;2023-10-13T02:59:31;19.40;99.90
14735;DHT22;7458;49.002;8.472;2023-10-13T03:02:04;19.50;97.60
14735;DHT22;7458;49.002;8.472;2023-10-13T03:04:46;19.30;99.90
14735;DHT22;7458;49.002;8.472;2023-10-13T03:07:34;19.10;99.90
14735;DHT22;7458;49.002;8.472;2023-10-13T03:10:02;19.00;99.90
14735;DHT22;7458;49.002;8.472;2023-10-13T03:12:36;19.10;99.90
14735;DHT22;7458;49.002;8.472;2023-10-13T03:15:03;19.00;99.90
14735;DHT22;7458;49.002;8.472;2023-10-13T03:17:39;19.10;99.20
14735;DHT22;7458;49.002;8.472;2023-10-13T03:20:13;18.70;99.90
14735;DHT22;7458;49.002;8.472;2023-10-13T03:22:41;19.20;99.90
14735;DHT22;7458;49.002;8.472;2023-10-13T03:25:13;18.90;99.60
14735;DHT22;7458;49.002;8.472;2023-10-13T03:27:49;18.80;99.70
14735;DHT22;7458;49.002;8.472;2023-10-13T03:30:16;19.00;99.90
14735;DHT22;7458;49.002;8.472;2023-10-13T03:32:43;18.90;99.90
14735;DHT22;7458;49.002;8.472;2023-10-13T03:35:14;18.60;99.90
14735;DHT22;7458;49.002;8.472;2023-10-13T03:37:50;18.60;99.90
14735;DHT22;7458;49.002;8.472;2023-10-13T03:40:16;18.30;99.90
14735;DHT22;7458;49.002;8.472;2023-10-13T03:42:55;18.50;99.90
14735;DHT22;7458;49.002;8.472;2023-10-13T03:45:44;18.40;99.90
14735;DHT22;7458;49.002;8.472;2023-10-13T03:48:17;18.10;99.90
14735;DHT22;7458;49.002;8.472;2023-10-13T03:50:50;18.30;99.90
14735;DHT22;7458;49.002;8.472;2023-10-13T03:53:35;18.10;99.90
14735;DHT22;7458;49.002;8.472;2023-10-13T03:56:21;18.20;99.90
14735;DHT22;7458;49.002;8.472;2023-10-13T03:59:06;18.20;99.90
14735;DHT22;7458;49.002;8.472;2023-10-13T04:01:36;18.10;99.90
14735;DHT22;7458;49.002;8.472;2023-10-13T04:04:25;18.30;99.90
14735;DHT22;7458;49.002;8.472;2023-10-13T04:07:03;18.00;99.90
14735;DHT22;7458;49.002;8.472;2023-10-13T04:09:36;19.20;99.90
14735;DHT22;7458;49.002;8.472;2023-10-13T04:12:07;17.90;99.90
14735;DHT22;7458;49.002;8.472;2023-10-13T04:14:43;17.80;99.90
14735;DHT22;7458;49.002;8.472;2023-10-13T04:17:13;17.50;99.90
14735;DHT22;7458;49.002;8.472;2023-10-13T04:22:39;17.60;99.90
14735;DHT22;7458;49.002;8.472;2023-10-13T04:25:15;17.60;99.90
14735;DHT22;7458;49.002;8.472;2023-10-13T04:28:20;17.60;99.90
14735;DHT22;7458;49.002;8.472;2023-10-13T04:31:00;17.70;99.90
14735;DHT22;7458;49.002;8.472;2023-10-13T04:33:37;17.20;99.90
14735;DHT22;7458;49.002;8.472;2023-10-13T04:36:17;17.50;99.90
14735;DHT22;7458;49.002;8.472;2023-10-13T04:38:58;17.30;99.90
14735;DHT22;7458;49.002;8.472;2023-10-13T04:41:36;16.90;99.90
14735;DHT22;7458;49.002;8.472;2023-10-13T04:44:13;17.20;99.90
14735;DHT22;7458;49.002;8.472;2023-10-13T04:46:56;17.20;99.90
14735;DHT22;7458;49.002;8.472;2023-10-13T04:49:34;17.40;99.90
14735;DHT22;7458;49.002;8.472;2023-10-13T04:52:12;17.30;99.90
14735;DHT22;7458;49.002;8.472;2023-10-13T04:54:52;17.30;99.90
14735;DHT22;7458;49.002;8.472;2023-10-13T05:00:01;17.00;99.90
14735;DHT22;7458;49.002;8.472;2023-10-13T05:02:30;17.10;99.90
14735;DHT22;7458;49.002;8.472;2023-10-13T05:05:14;17.00;99.90
14735;DHT22;7458;49.002;8.472;2023-10-13T05:07:46;17.20;99.90
14735;DHT22;7458;49.002;8.472;2023-10-13T05:10:31;16.80;99.90
14735;DHT22;7458;49.002;8.472;2023-10-13T05:13:15;16.90;99.90
14735;DHT22;7458;49.002;8.472;2023-10-13T05:16:00;17.00;99.90
14735;DHT22;7458;49.002;8.472;2023-10-13T05:18:44;17.00;99.90
14735;DHT22;7458;49.002;8.472;2023-10-13T05:21:29;16.80;99.90
14735;DHT22;7458;49.002;8.472;2023-10-13T05:24:13;16.70;99.90
14735;DHT22;7458;49.002;8.472;2023-10-13T05:26:58;17.30;99.90
14735;DHT22;7458;49.002;8.472;2023-10-13T05:29:45;16.40;99.90
14735;DHT22;7458;49.002;8.472;2023-10-13T05:32:32;16.70;99.90
14735;DHT22;7458;49.002;8.472;2023-10-13T05:35:19;16.70;99.90
14735;DHT22;7458;49.002;8.472;2023-10-13T05:38:04;16.80;99.90
14735;DHT22;7458;49.002;8.472;2023-10-13T05:40:56;15.90;99.90
14735;DHT22;7458;49.002;8.472;2023-10-13T05:43:42;16.80;99.90
14735;DHT22;7458;49.002;8.472;2023-10-13T05:46:27;16.90;99.90
14735;DHT22;7458;49.002;8.472;2023-10-13T05:48:53;16.60;99.90
14735;DHT22;7458;49.002;8.472;2023-10-13T05:51:26;17.00;99.90
14735;DHT22;7458;49.002;8.472;2023-10-13T05:54:09;16.90;99.90
14735;DHT22;7458;49.002;8.472;2023-10-13T05:56:47;16.90;99.90
14735;DHT22;7458;49.002;8.472;2023-10-13T05:59:36;16.70;99.90
14735;DHT22;7458;49.002;8.472;2023-10-13T06:02:22;17.00;99.90
14735;DHT22;7458;49.002;8.472;2023-10-13T06:05:11;16.80;99.90
14735;DHT22;7458;49.002;8.472;2023-10-13T06:07:57;17.00;99.90
14735;DHT22;7458;49.002;8.472;2023-10-13T06:10:43;17.00;99.90
14735;DHT22;7458;49.002;8.472;2023-10-13T06:13:28;17.10;99.90
14735;DHT22;7458;49.002;8.472;2023-10-13T06:16:17;17.10;99.90
14735;DHT22;7458;49.002;8.472;2023-10-13T06:19:01;17.10;99.90
14735;DHT22;7458;49.002;8.472;2023-10-13T06:21:47;17.00;99.90
14735;DHT22;7458;49.002;8.472;2023-10-13T06:24:31;17.10;99.90
14735;DHT22;7458;49.002;8.472;2023-10-13T06:27:16;17.40;99.90
14735;DHT22;7458;49.002;8.472;2023-10-13T06:30:02;17.10;99.90
14735;DHT22;7458;49.002;8.472;2023-10-13T06:32:30;17.20;99.90
14735;DHT22;7458;49.002;8.472;2023-10-13T06:34:57;17.60;99.90
14735;DHT22;7458;49.002;8.472;2023-10-13T06:37:25;17.30;99.90
14735;DHT22;7458;49.002;8.472;2023-10-13T06:39:54;18.50;99.90
14735;DHT22;7458;49.002;8.472;2023-10-13T06:42:40;18.30;99.90
14735;DHT22;7458;49.002;8.472;2023-10-13T06:45:09;18.30;99.90
14735;DHT22;7458;49.002;8.472;2023-10-13T06:47:38;18.60;99.90
14735;DHT22;7458;49.002;8.472;2023-10-13T06:50:14;18.80;99.90
14735;DHT22;7458;49.002;8.472;2023-10-13T06:52:50;19.60;99.90
14735;DHT22;7458;49.002;8.472;2023-10-13T06:55:20;20.00;99.90
14735;DHT22;7458;49.002;8.472;2023-10-13T06:57:53;20.40;99.90
14735;DHT22;7458;49.002;8.472;2023-10-13T07:00:25;20.70;99.90
14735;DHT22;7458;49.002;8.472;2023-10-13T07:03:06;21.10;99.90
14735;DHT22;7458;49.002;8.472;2023-10-13T07:05:36;21.50;99.90
14735;DHT22;7458;49.002;8.472;2023-10-13T07:08:10;22.10;99.60
14735;DHT22;7458;49.002;8.472;2023-10-13T07:10:53;21.90;98.50
14735;DHT22;7458;49.002;8.472;2023-10-13T07:13:43;22.30;97.60
14735;DHT22;7458;49.002;8.472;2023-10-13T07:16:15;22.50;97.40
14735;DHT22;7458;49.002;8.472;2023-10-13T07:18:41;22.60;97.10
14735;DHT22;7458;49.002;8.472;2023-10-13T07:21:18;22.70;96.20
14735;DHT22;7458;49.002;8.472;2023-10-13T07:23:56;22.90;95.90
14735;DHT22;7458;49.002;8.472;2023-10-13T07:26:36;23.00;95.30
14735;DHT22;7458;49.002;8.472;2023-10-13T07:29:09;23.30;95.20
14735;DHT22;7458;49.002;8.472;2023-10-13T07:31:35;22.90;95.40
14735;DHT22;7458;49.002;8.472;2023-10-13T07:34:04;22.90;95.30
14735;DHT22;7458;49.002;8.472;2023-10-13T07:36:53;22.70;94.80
14735;DHT22;7458;49.002;8.472;2023-10-13T07:39:27;22.50;94.70
14735;DHT22;7458;49.002;8.472;2023-10-13T07:41:54;22.40;94.90
14735;DHT22;7458;49.002;8.472;2023-10-13T07:44:23;22.20;94.80
14735;DHT22;7458;49.002;8.472;2023-10-13T07:46:57;22.30;94.90
14735;DHT22;7458;49.002;8.472;2023-10-13T07:49:32;22.10;95.10
14735;DHT22;7458;49.002;8.472;2023-10-13T07:52:03;22.30;94.90
14735;DHT22;7458;49.002;8.472;2023-10-13T07:54:49;22.30;95.00
14735;DHT22;7458;49.002;8.472;2023-10-13T07:57:37;22.50;94.80
14735;DHT22;7458;49.002;8.472;2023-10-13T08:00:19;22.60;94.80
14735;DHT22;7458;49.002;8.472;2023-10-13T08:03:03;22.70;95.00
14735;DHT22;7458;49.002;8.472;2023-10-13T08:05:51;23.20;94.90
14735;DHT22;7458;49.002;8.472;2023-10-13T08:08:33;23.40;94.10
14735;DHT22;7458;49.002;8.472;2023-10-13T08:11:09;23.70;93.60
14735;DHT22;7458;49.002;8.472;2023-10-13T08:13:41;23.80;92.40
14735;DHT22;7458;49.002;8.472;2023-10-13T08:16:14;23.80;91.60
14735;DHT22;7458;49.002;8.472;2023-10-13T08:18:52;24.00;91.60
14735;DHT22;7458;49.002;8.472;2023-10-13T08:21:18;23.90;90.80
14735;DHT22;7458;49.002;8.472;2023-10-13T08:23:57;24.00;90.60
14735;DHT22;7458;49.002;8.472;2023-10-13T08:26:28;24.00;90.30
14735;DHT22;7458;49.002;8.472;2023-10-13T08:29:23;23.90;90.10
14735;DHT22;7458;49.002;8.472;2023-10-13T08:31:55;24.00;90.00
14735;DHT22;7458;49.002;8.472;2023-10-13T08:34:40;24.00;90.10
14735;DHT22;7458;49.002;8.472;2023-10-13T08:37:09;24.00;90.50
14735;DHT22;7458;49.002;8.472;2023-10-13T08:39:55;23.90;89.80
14735;DHT22;7458;49.002;8.472;2023-10-13T08:42:32;23.80;89.40
14735;DHT22;7458;49.002;8.472;2023-10-13T08:47:54;23.40;90.30
14735;DHT22;7458;49.002;8.472;2023-10-13T08:50:47;23.30;90.10
14735;DHT22;7458;49.002;8.472;2023-10-13T08:53:29;23.00;90.30
14735;DHT22;7458;49.002;8.472;2023-10-13T08:56:04;23.00;90.50
14735;DHT22;7458;49.002;8.472;2023-10-13T08:58:31;23.00;90.60
14735;DHT22;7458;49.002;8.472;2023-10-13T09:01:17;23.00;90.70
14735;DHT22;7458;49.002;8.472;2023-10-13T09:04:00;23.00;90.40
14735;DHT22;7458;49.002;8.472;2023-10-13T09:06:58;22.90;90.30
14735;DHT22;7458;49.002;8.472;2023-10-13T09:09:26;23.10;89.20
14735;DHT22;7458;49.002;8.472;2023-10-13T09:11:54;23.60;88.90
14735;DHT22;7458;49.002;8.472;2023-10-13T09:14:36;24.30;92.30
14735;DHT22;7458;49.002;8.472;2023-10-13T09:17:07;24.60;84.90
14735;DHT22;7458;49.002;8.472;2023-10-13T09:19:56;25.10;82.00
14735;DHT22;7458;49.002;8.472;2023-10-13T09:22:24;25.60;80.30
14735;DHT22;7458;49.002;8.472;2023-10-13T09:24:57;26.10;78.30
14735;DHT22;7458;49.002;8.472;2023-10-13T09:27:30;26.50;76.70
14735;DHT22;7458;49.002;8.472;2023-10-13T09:30:03;26.90;71.90
14735;DHT22;7458;49.002;8.472;2023-10-13T09:32:44;27.40;90.10
14735;DHT22;7458;49.002;8.472;2023-10-13T09:35:18;27.40;86.30
14735;DHT22;7458;49.002;8.472;2023-10-13T09:37:49;27.50;85.70
14735;DHT22;7458;49.002;8.472;2023-10-13T09:40:17;28.10;86.70
14735;DHT22;7458;49.002;8.472;2023-10-13T09:42:59;28.10;73.60
14735;DHT22;7458;49.002;8.472;2023-10-13T09:45:34;28.20;65.00
14735;DHT22;7458;49.002;8.472;2023-10-13T09:48:10;28.40;62.50
14735;DHT22;7458;49.002;8.472;2023-10-13T09:50:44;28.50;62.00
14735;DHT22;7458;49.002;8.472;2023-10-13T09:53:16;28.60;62.00
14735;DHT22;7458;49.002;8.472;2023-10-13T09:56:25;28.70;61.80
14735;DHT22;7458;49.002;8.472;2023-10-13T09:59:08;28.80;60.90
14735;DHT22;7458;49.002;8.472;2023-10-13T10:01:43;28.90;59.60
14735;DHT22;7458;49.002;8.472;2023-10-13T10:04:38;28.90;59.10
14735;DHT22;7458;49.002;8.472;2023-10-13T10:07:24;28.90;59.00
14735;DHT22;7458;49.002;8.472;2023-10-13T10:09:57;29.20;59.30
14735;DHT22;7458;49.002;8.472;2023-10-13T10:12:49;29.40;59.30
14735;DHT22;7458;49.002;8.472;2023-10-13T10:18:02;29.70;57.80
14735;DHT22;7458;49.002;8.472;2023-10-13T10:20:36;29.90;55.90
14735;DHT22;7458;49.002;8.472;2023-10-13T10:25:38;30.10;54.40
14735;DHT22;7458;49.002;8.472;2023-10-13T10:28:10;30.30;53.90
14735;DHT22;7458;49.002;8.472;2023-10-13T10:30:41;30.30;53.70
14735;DHT22;7458;49.002;8.472;2023-10-13T10:33:10;30.20;50.70
14735;DHT22;7458;49.002;8.472;2023-10-13T10:35:57;30.50;50.60
14735;DHT22;7458;49.002;8.472;2023-10-13T10:38:25;30.60;49.40
14735;DHT22;7458;49.002;8.472;2023-10-13T10:40:57;30.60;48.00
14735;DHT22;7458;49.002;8.472;2023-10-13T10:43:28;30.70;46.90
14735;DHT22;7458;49.002;8.472;2023-10-13T10:48:53;30.70;46.90
14735;DHT22;7458;49.002;8.472;2023-10-13T10:51:22;30.60;46.20
14735;DHT22;7458;49.002;8.472;2023-10-13T10:53:52;30.60;45.40
14735;DHT22;7458;49.002;8.472;2023-10-13T10:56:23;30.70;45.70
14735;DHT22;7458;49.002;8.472;2023-10-13T10:59:04;30.60;44.80
14735;DHT22;7458;49.002;8.472;2023-10-13T11:01:33;30.70;45.00
14735;DHT22;7458;49.002;8.472;2023-10-13T11:04:18;30.80;44.80
14735;DHT22;7458;49.002;8.472;2023-10-13T11:06:54;30.80;44.30
14735;DHT22;7458;49.002;8.472;2023-10-13T11:09:29;30.70;43.80
14735;DHT22;7458;49.002;8.472;2023-10-13T11:12:11;30.90;44.10
14735;DHT22;7458;49.002;8.472;2023-10-13T11:14:48;30.90;42.90
14735;DHT22;7458;49.002;8.472;2023-10-13T11:17:20;30.70;42.90
14735;DHT22;7458;49.002;8.472;2023-10-13T11:20:08;30.90;43.20
14735;DHT22;7458;49.002;8.472;2023-10-13T11:22:45;30.90;42.40
14735;DHT22;7458;49.002;8.472;2023-10-13T11:25:37;31.00;42.70
14735;DHT22;7458;49.002;8.472;2023-10-13T11:30:43;31.10;42.20
14735;DHT22;7458;49.002;8.472;2023-10-13T11:33:19;31.10;42.00
14735;DHT22;7458;49.002;8.472;2023-10-13T11:35:55;31.10;41.90
14735;DHT22;7458;49.002;8.472;2023-10-13T11:38:26;31.00;41.60
14735;DHT22;7458;49.002;8.472;2023-10-13T11:40:57;31.00;41.70
14735;DHT22;7458;49.002;8.472;2023-10-13T11:43:30;30.90;41.50
14735;DHT22;7458;49.002;8.472;2023-10-13T11:46:15;30.80;41.20
14735;DHT22;7458;49.002;8.472;2023-10-13T11:48:44;30.90;41.10
14735;DHT22;7458;49.002;8.472;2023-10-13T11:51:13;30.80;41.10
14735;DHT22;7458;49.002;8.472;2023-10-13T11:53:46;30.80;40.80
14735;DHT22;7458;49.002;8.472;2023-10-13T11:56:21;30.70;40.30
14735;DHT22;7458;49.002;8.472;2023-10-13T11:58:47;30.60;40.60
14735;DHT22;7458;49.002;8.472;2023-10-13T12:01:14;30.60;40.90
14735;DHT22;7458;49.002;8.472;2023-10-13T12:03:45;30.40;41.00
14735;DHT22;7458;49.002;8.472;2023-10-13T12:06:32;30.40;41.30
14735;DHT22;7458;49.002;8.472;2023-10-13T12:11:38;30.30;41.10
14735;DHT22;7458;49.002;8.472;2023-10-13T12:14:12;30.30;41.40
14735;DHT22;7458;49.002;8.472;2023-10-13T12:16:53;30.30;41.50
14735;DHT22;7458;49.002;8.472;2023-10-13T12:19:24;30.20;42.20
14735;DHT22;7458;49.002;8.472;2023-10-13T12:21:53;30.00;41.70
14735;DHT22;7458;49.002;8.472;2023-10-13T12:24:27;30.20;50.80
14735;DHT22;7458;49.002;8.472;2023-10-13T12:27:03;29.90;42.00
14735;DHT22;7458;49.002;8.472;2023-10-13T12:29:45;29.90;42.10
14735;DHT22;7458;49.002;8.472;2023-10-13T12:32:12;29.90;42.60
14735;DHT22;7458;49.002;8.472;2023-10-13T12:34:41;29.90;42.60
14735;DHT22;7458;49.002;8.472;2023-10-13T12:37:25;30.00;42.50
14735;DHT22;7458;49.002;8.472;2023-10-13T12:40:19;30.00;42.30
14735;DHT22;7458;49.002;8.472;2023-10-13T12:43:04;30.00;42.10
14735;DHT22;7458;49.002;8.472;2023-10-13T12:45:50;29.90;41.70
14735;DHT22;7458;49.002;8.472;2023-10-13T12:48:36;29.70;41.80
14735;DHT22;7458;49.002;8.472;2023-10-13T12:51:23;29.60;42.10
14735;DHT22;7458;49.002;8.472;2023-10-13T12:53:58;29.60;42.50
14735;DHT22;7458;49.002;8.472;2023-10-13T12:56:45;29.70;42.70
14735;DHT22;7458;49.002;8.472;2023-10-13T12:59:11;29.80;42.80
14735;DHT22;7458;49.002;8.472;2023-10-13T13:01:41;29.60;42.50
14735;DHT22;7458;49.002;8.472;2023-10-13T13:04:10;29.60;42.60
14735;DHT22;7458;49.002;8.472;2023-10-13T13:06:51;29.60;42.70
14735;DHT22;7458;49.002;8.472;2023-10-13T13:09:19;29.60;42.70
14735;DHT22;7458;49.002;8.472;2023-10-13T13:11:52;29.60;43.00
14735;DHT22;7458;49.002;8.472;2023-10-13T13:14:25;29.70;53.40
14735;DHT22;7458;49.002;8.472;2023-10-13T13:16:55;29.50;42.30
14735;DHT22;7458;49.002;8.472;2023-10-13T13:19:37;29.60;42.60
14735;DHT22;7458;49.002;8.472;2023-10-13T13:22:07;29.70;42.20
14735;DHT22;7458;49.002;8.472;2023-10-13T13:24:42;30.40;54.20
14735;DHT22;7458;49.002;8.472;2023-10-13T13:27:14;29.60;41.70
14735;DHT22;7458;49.002;8.472;2023-10-13T13:29:44;29.60;41.50
14735;DHT22;7458;49.002;8.472;2023-10-13T13:32:10;29.50;41.40
14735;DHT22;7458;49.002;8.472;2023-10-13T13:34:49;29.50;41.30
14735;DHT22;7458;49.002;8.472;2023-10-13T13:37:39;29.60;41.90
14735;DHT22;7458;49.002;8.472;2023-10-13T13:40:06;29.50;42.20
14735;DHT22;7458;49.002;8.472;2023-10-13T13:42:45;29.50;42.60
14735;DHT22;7458;49.002;8.472;2023-10-13T13:45:16;29.50;42.30
14735;DHT22;7458;49.002;8.472;2023-10-13T13:47:53;29.60;42.90
14735;DHT22;7458;49.002;8.472;2023-10-13T13:50:27;28.90;41.70
14735;DHT22;7458;49.002;8.472;2023-10-13T13:52:58;29.60;42.20
14735;DHT22;7458;49.002;8.472;2023-10-13T13:55:26;29.50;41.60
14735;DHT22;7458;49.002;8.472;2023-10-13T13:57:57;29.50;41.70
14735;DHT22;7458;49.002;8.472;2023-10-13T14:00:23;29.50;41.70
14735;DHT22;7458;49.002;8.472;2023-10-13T14:03:11;29.60;42.10
14735;DHT22;7458;49.002;8.472;2023-10-13T14:06:00;29.40;42.00
14735;DHT22;7458;49.002;8.472;2023-10-13T14:08:26;29.40;41.80
14735;DHT22;7458;49.002;8.472;2023-10-13T14:10:55;29.40;41.80
14735;DHT22;7458;49.002;8.472;2023-10-13T14:13:46;29.30;42.10
14735;DHT22;7458;49.002;8.472;2023-10-13T14:16:19;29.40;42.30
14735;DHT22;7458;49.002;8.472;2023-10-13T14:18:47;29.40;42.70
14735;DHT22;7458;49.002;8.472;2023-10-13T14:21:13;29.40;42.40
14735;DHT22;7458;49.002;8.472;2023-10-13T14:23:50;29.40;42.10
14735;DHT22;7458;49.002;8.472;2023-10-13T14:26:19;29.50;42.30
14735;DHT22;7458;49.002;8.472;2023-10-13T14:28:50;29.40;41.70
14735;DHT22;7458;49.002;8.472;2023-10-13T14:31:30;29.40;42.00
14735;DHT22;7458;49.002;8.472;2023-10-13T14:33:57;29.40;42.00
14735;DHT22;7458;49.002;8.472;2023-10-13T14:36:24;29.30;42.20
14735;DHT22;7458;49.002;8.472;2023-10-13T14:38:54;29.30;41.90
14735;DHT22;7458;49.002;8.472;2023-10-13T14:41:22;29.30;41.90
14735;DHT22;7458;49.002;8.472;2023-10-13T14:43:48;29.10;42.00
14735;DHT22;7458;49.002;8.472;2023-10-13T14:46:17;29.30;42.00
14735;DHT22;7458;49.002;8.472;2023-10-13T14:48:44;29.20;41.90
14735;DHT22;7458;49.002;8.472;2023-10-13T14:51:11;29.20;42.40
14735;DHT22;7458;49.002;8.472;2023-10-13T14:53:43;29.20;42.50
14735;DHT22;7458;49.002;8.472;2023-10-13T14:56:16;29.20;42.50
14735;DHT22;7458;49.002;8.472;2023-10-13T14:58:44;29.10;43.30
14735;DHT22;7458;49.002;8.472;2023-10-13T15:01:13;29.10;42.80
14735;DHT22;7458;49.002;8.472;2023-10-13T15:03:44;29.10;43.20
14735;DHT22;7458;49.002;8.472;2023-10-13T15:06:19;28.30;44.30
14735;DHT22;7458;49.002;8.472;2023-10-13T15:08:51;29.10;45.90
14735;DHT22;7458;49.002;8.472;2023-10-13T15:11:20;29.10;46.50
14735;DHT22;7458;49.002;8.472;2023-10-13T15:13:46;28.80;46.40
14735;DHT22;7458;49.002;8.472;2023-10-13T15:16:20;29.10;45.10
14735;DHT22;7458;49.002;8.472;2023-10-13T15:18:51;29.10;47.10
14735;DHT22;7458;49.002;8.472;2023-10-13T15:21:28;29.10;47.20
14735;DHT22;7458;49.002;8.472;2023-10-13T15:24:02;29.10;47.70
14735;DHT22;7458;49.002;8.472;2023-10-13T15:26:33;29.00;47.80
14735;DHT22;7458;49.002;8.472;2023-10-13T15:29:06;29.00;48.00
14735;DHT22;7458;49.002;8.472;2023-10-13T15:31:38;29.00;48.60
14735;DHT22;7458;49.002;8.472;2023-10-13T15:34:11;28.80;46.30
14735;DHT22;7458;49.002;8.472;2023-10-13T15:36:44;28.70;41.40
14735;DHT22;7458;49.002;8.472;2023-10-13T15:39:10;28.60;40.70
14735;DHT22;7458;49.002;8.472;2023-10-13T15:41:37;28.80;42.10
14735;DHT22;7458;49.002;8.472;2023-10-13T15:44:04;28.70;54.90
14735;DHT22;7458;49.002;8.472;2023-10-13T15:46:35;28.10;53.90
14735;DHT22;7458;49.002;8.472;2023-10-13T15:51:34;27.80;54.10
14735;DHT22;7458;49.002;8.472;2023-10-13T15:54:03;28.20;40.40
14735;DHT22;7458;49.002;8.472;2023-10-13T15:56:30;28.30;41.80
14735;DHT22;7458;49.002;8.472;2023-10-13T15:59:00;28.20;43.20
14735;DHT22;7458;49.002;8.472;2023-10-13T16:01:27;27.80;43.30
14735;DHT22;7458;49.002;8.472;2023-10-13T16:03:54;27.90;43.50
14735;DHT22;7458;49.002;8.472;2023-10-13T16:06:20;28.00;42.90
14735;DHT22;7458;49.002;8.472;2023-10-13T16:08:51;27.90;42.60
14735;DHT22;7458;49.002;8.472;2023-10-13T16:11:18;27.90;43.40
14735;DHT22;7458;49.002;8.472;2023-10-13T16:13:45;28.40;44.20
14735;DHT22;7458;49.002;8.472;2023-10-13T16:16:18;28.40;43.90
14735;DHT22;7458;49.002;8.472;2023-10-13T16:18:52;27.90;44.20
14735;DHT22;7458;49.002;8.472;2023-10-13T16:21:19;27.60;45.00
14735;DHT22;7458;49.002;8.472;2023-10-13T16:23:47;27.60;46.10
14735;DHT22;7458;49.002;8.472;2023-10-13T16:26:17;27.50;45.40
14735;DHT22;7458;49.002;8.472;2023-10-13T16:28:51;27.40;45.10
14735;DHT22;7458;49.002;8.472;2023-10-13T16:31:23;27.30;45.40
14735;DHT22;7458;49.002;8.472;2023-10-13T16:33:56;26.90;46.60
14735;DHT22;7458;49.002;8.472;2023-10-13T16:36:25;26.80;44.40
14735;DHT22;7458;49.002;8.472;2023-10-13T16:38:51;26.80;46.90
14735;DHT22;7458;49.002;8.472;2023-10-13T16:41:16;26.80;47.60
14735;DHT22;7458;49.002;8.472;2023-10-13T16:43:44;26.60;47.40
14735;DHT22;7458;49.002;8.472;2023-10-13T16:46:11;26.50;47.30
14735;DHT22;7458;49.002;8.472;2023-10-13T16:48:41;26.30;47.80
14735;DHT22;7458;49.002;8.472;2023-10-13T16:51:07;26.40;47.80
14735;DHT22;7458;49.002;8.472;2023-10-13T16:53:40;26.20;46.70
14735;DHT22;7458;49.002;8.472;2023-10-13T16:56:16;26.50;47.10
14735;DHT22;7458;49.002;8.472;2023-10-13T16:58:43;26.30;46.90
14735;DHT22;7458;49.002;8.472;2023-10-13T17:01:13;26.10;46.00
14735;DHT22;7458;49.002;8.472;2023-10-13T17:03:41;26.10;46.20